createdAt,value
2019-03-01T00:02:58.793Z,1.30
2019-03-01T00:07:22.284Z,1.10
2019-03-01T00:11:32.205Z,0.80
2019-03-01T00:15:44.495Z,1.00
2019-03-01T00:19:52.904Z,1.00
2019-03-01T00:24:16.548Z,0.77
2019-03-01T00:28:27.177Z,0.70
2019-03-01T00:32:37.687Z,0.77
2019-03-01T00:36:51.100Z,1.10
2019-03-01T00:41:01.485Z,0.90
2019-03-01T00:45:05.677Z,1.10
2019-03-01T00:49:09.677Z,0.60
2019-03-01T00:53:13.881Z,0.80
2019-03-01T00:57:18.153Z,0.80
2019-03-01T01:01:22.171Z,0.70
2019-03-01T01:05:26.239Z,0.93
2019-03-01T01:09:30.232Z,0.80
2019-03-01T01:13:34.558Z,0.87
2019-03-01T01:17:38.431Z,0.70
2019-03-01T01:21:42.512Z,0.73
2019-03-01T01:25:46.573Z,0.90
2019-03-01T01:29:50.583Z,0.90
2019-03-01T01:33:54.609Z,1.00
2019-03-01T01:37:58.912Z,0.80
2019-03-01T01:42:03.011Z,0.87
2019-03-01T01:46:06.885Z,0.93
2019-03-01T01:50:11.017Z,0.70
2019-03-01T01:54:15.170Z,1.00
2019-03-01T01:58:19.160Z,0.80
2019-03-01T02:02:23.283Z,0.73
2019-03-01T02:06:27.361Z,1.00
2019-03-01T02:10:31.488Z,0.80
2019-03-01T02:14:35.561Z,0.63
2019-03-01T02:18:39.661Z,0.80
2019-03-01T02:22:43.612Z,0.80
2019-03-01T02:26:47.727Z,0.80
2019-03-01T02:30:52.173Z,0.70
2019-03-01T02:34:56.189Z,0.70
2019-03-01T02:39:00.306Z,0.70
2019-03-01T02:43:05.145Z,0.80
2019-03-01T02:47:09.219Z,0.67
2019-03-01T02:51:13.387Z,0.60
2019-03-01T02:55:17.696Z,0.50
2019-03-01T02:59:21.774Z,0.50
2019-03-01T03:03:26.185Z,0.73
2019-03-01T03:07:36.012Z,0.50
2019-03-01T03:11:40.019Z,0.60
2019-03-01T03:15:46.279Z,0.50
2019-03-01T03:19:50.268Z,0.50
2019-03-01T03:23:54.421Z,0.40
2019-03-01T03:27:58.517Z,0.50
2019-03-01T03:32:02.642Z,0.40
2019-03-01T03:36:07.120Z,0.50
2019-03-01T03:40:11.602Z,0.40
2019-03-01T03:44:15.737Z,0.33
2019-03-01T03:48:19.838Z,0.50
2019-03-01T03:52:23.896Z,0.50
2019-03-01T03:56:28.020Z,0.60
2019-03-01T04:00:54.182Z,0.70
2019-03-01T04:04:58.409Z,0.50
2019-03-01T04:09:04.616Z,0.57
2019-03-01T04:13:10.240Z,0.53
2019-03-01T04:17:14.737Z,0.50
2019-03-01T04:21:19.007Z,0.60
2019-03-01T04:25:23.087Z,0.70
2019-03-01T04:29:27.105Z,0.57
2019-03-01T04:33:31.077Z,0.60
2019-03-01T04:37:35.171Z,0.60
2019-03-01T04:41:39.147Z,0.60
2019-03-01T04:45:43.288Z,0.60
2019-03-01T04:49:47.962Z,0.60
2019-03-01T04:53:52.253Z,0.60
2019-03-01T04:57:56.422Z,0.60
2019-03-01T05:02:00.418Z,0.77
2019-03-01T05:06:04.409Z,0.50
2019-03-01T05:10:09.194Z,0.53
2019-03-01T05:14:13.438Z,0.40
2019-03-01T05:18:18.513Z,0.40
2019-03-01T05:22:22.526Z,0.50
2019-03-01T05:26:26.592Z,0.67
2019-03-01T05:30:30.584Z,0.33
2019-03-01T05:34:34.656Z,0.40
2019-03-01T05:38:38.799Z,0.40
2019-03-01T05:42:42.783Z,0.40
2019-03-01T05:46:46.968Z,0.30
2019-03-01T05:50:51.162Z,0.50
2019-03-01T05:54:55.207Z,0.40
2019-03-01T05:59:07.076Z,0.53
2019-03-01T06:03:21.878Z,0.30
2019-03-01T06:07:32.278Z,0.40
2019-03-01T06:11:40.935Z,0.30
2019-03-01T06:16:04.176Z,0.40
2019-03-01T06:20:14.416Z,0.40
2019-03-01T06:24:23.607Z,0.40
2019-03-01T06:28:47.201Z,0.30
2019-03-01T06:33:03.131Z,0.40
2019-03-01T06:37:26.442Z,0.40
2019-03-01T06:41:49.959Z,0.43
2019-03-01T06:46:04.671Z,0.30
2019-03-01T06:50:15.850Z,0.50
2019-03-01T06:54:19.913Z,0.40
2019-03-01T06:58:25.228Z,0.50
2019-03-01T07:02:36.249Z,0.63
2019-03-01T07:06:40.370Z,0.70
2019-03-01T07:10:44.452Z,0.53
2019-03-01T07:14:48.551Z,0.60
2019-03-01T07:18:52.724Z,0.80
2019-03-01T07:22:56.859Z,0.90
2019-03-01T07:27:01.906Z,1.67
2019-03-01T07:31:07.088Z,1.17
2019-03-01T07:35:15.921Z,1.00
2019-03-01T07:39:20.118Z,1.03
2019-03-01T07:43:24.135Z,0.90
2019-03-01T07:47:28.262Z,1.10
2019-03-01T07:51:36.022Z,0.70
2019-03-01T07:55:40.048Z,0.90
2019-03-01T07:59:44.002Z,1.17
2019-03-01T08:03:52.262Z,0.80
2019-03-01T08:07:56.322Z,0.73
2019-03-01T08:11:59.725Z,3.60
2019-03-01T08:16:04.203Z,3.03
2019-03-01T08:20:09.927Z,4.13
2019-03-01T08:24:13.898Z,4.03
2019-03-01T08:28:18.418Z,4.73
2019-03-01T08:32:27.455Z,3.83
2019-03-01T08:36:30.502Z,3.97
2019-03-01T08:40:34.552Z,3.80
2019-03-01T08:44:38.678Z,6.03
2019-03-01T08:48:42.698Z,4.93
2019-03-01T08:52:46.920Z,4.97
2019-03-01T08:56:51.393Z,5.00
2019-03-01T09:00:59.766Z,4.13
2019-03-01T09:05:01.568Z,4.23
2019-03-01T09:09:08.623Z,4.83
2019-03-01T09:13:14.153Z,5.77
2019-03-01T09:17:18.217Z,5.53
2019-03-01T09:21:22.318Z,5.90
2019-03-01T09:25:26.391Z,6.03
2019-03-01T09:29:30.648Z,6.00
2019-03-01T09:33:34.734Z,6.60
2019-03-01T09:37:38.871Z,6.50
2019-03-01T09:41:43.050Z,6.47
2019-03-01T09:45:48.864Z,5.97
2019-03-01T09:49:52.863Z,7.30
2019-03-01T09:53:56.989Z,9.63
2019-03-01T09:58:00.919Z,9.27
2019-03-01T10:02:05.058Z,8.63
2019-03-01T10:06:09.071Z,10.23
2019-03-01T10:10:13.243Z,9.60
2019-03-01T10:14:17.276Z,9.30
2019-03-01T10:18:21.364Z,12.23
2019-03-01T10:22:25.425Z,12.77
2019-03-01T10:26:29.561Z,26.07
2019-03-01T10:30:33.662Z,17.90
2019-03-01T10:34:37.829Z,13.97
2019-03-01T10:38:42.068Z,14.30
2019-03-01T10:42:46.231Z,16.73
2019-03-01T10:46:50.250Z,21.73
2019-03-01T10:50:54.400Z,15.33
2019-03-01T10:54:58.442Z,25.73
2019-03-01T10:59:02.595Z,19.13
2019-03-01T11:03:06.848Z,16.90
2019-03-01T11:07:10.940Z,18.00
2019-03-01T11:11:15.081Z,17.53
2019-03-01T11:15:19.115Z,12.77
2019-03-01T11:19:24.162Z,17.27
2019-03-01T11:23:28.360Z,12.43
2019-03-01T11:27:32.424Z,9.70
2019-03-01T11:31:36.608Z,10.97
2019-03-01T11:35:40.821Z,10.77
2019-03-01T11:39:45.279Z,13.90
2019-03-01T11:43:49.534Z,17.70
2019-03-01T11:47:53.746Z,10.50
2019-03-01T11:51:57.969Z,7.87
2019-03-01T11:56:02.281Z,8.70
2019-03-01T12:00:06.855Z,8.20
2019-03-01T12:04:12.507Z,8.67
2019-03-01T12:08:16.593Z,7.10
2019-03-01T12:12:20.694Z,6.57
2019-03-01T12:16:24.779Z,8.93
2019-03-01T12:20:28.948Z,11.43
2019-03-01T12:24:32.985Z,13.53
2019-03-01T12:28:37.134Z,15.70
2019-03-01T12:32:41.184Z,11.03
2019-03-01T12:36:46.403Z,23.50
2019-03-01T12:40:50.619Z,16.37
2019-03-01T12:44:54.798Z,23.87
2019-03-01T12:48:58.882Z,20.50
2019-03-01T12:53:02.926Z,16.03
2019-03-01T12:57:06.961Z,11.73
2019-03-01T13:01:11.014Z,12.47
2019-03-01T13:05:15.148Z,11.07
2019-03-01T13:09:19.320Z,7.30
2019-03-01T13:13:23.335Z,6.67
2019-03-01T13:17:27.656Z,7.07
2019-03-01T13:21:31.805Z,7.33
2019-03-01T13:25:35.871Z,9.00
2019-03-01T13:29:39.947Z,7.27
2019-03-01T13:33:43.942Z,7.67
2019-03-01T13:37:48.152Z,7.50
2019-03-01T13:41:52.203Z,8.60
2019-03-01T13:45:56.445Z,10.50
2019-03-01T13:50:05.452Z,9.30
2019-03-01T13:54:09.006Z,11.50
2019-03-01T13:58:12.218Z,9.60
2019-03-01T14:02:16.479Z,12.63
2019-03-01T14:06:21.727Z,11.17
2019-03-01T14:10:25.953Z,11.07
2019-03-01T14:14:30.063Z,10.60
2019-03-01T14:18:36.799Z,10.97
2019-03-01T14:22:39.894Z,9.30
2019-03-01T14:26:43.928Z,9.20
2019-03-01T14:30:48.337Z,7.20
2019-03-01T14:34:52.353Z,6.40
2019-03-01T14:38:56.789Z,6.40
2019-03-01T14:43:00.961Z,5.13
2019-03-01T14:47:05.077Z,5.30
2019-03-01T14:51:10.828Z,4.80
2019-03-01T14:55:16.197Z,5.03
2019-03-01T14:59:22.410Z,4.63
2019-03-01T15:03:33.506Z,4.47
2019-03-01T15:07:37.714Z,4.30
2019-03-01T15:11:44.375Z,4.20
2019-03-01T15:15:47.678Z,8.83
2019-03-01T15:19:52.086Z,9.43
2019-03-01T15:24:00.442Z,7.97
2019-03-01T15:28:03.044Z,6.17
2019-03-01T15:32:07.213Z,9.33
2019-03-01T15:36:13.609Z,18.17
2019-03-01T15:40:17.692Z,8.07
2019-03-01T15:44:24.269Z,9.03
2019-03-01T15:48:28.208Z,6.23
2019-03-01T15:52:32.379Z,7.37
2019-03-01T15:56:39.445Z,3.53
2019-03-01T16:00:42.296Z,2.07
2019-03-01T16:04:46.205Z,2.50
2019-03-01T16:08:50.339Z,2.10
2019-03-01T16:12:54.411Z,2.60
2019-03-01T16:16:58.439Z,6.80
2019-03-01T16:21:05.222Z,8.50
2019-03-01T16:25:09.264Z,4.50
2019-03-01T16:29:13.392Z,2.20
2019-03-01T16:33:17.487Z,2.80
2019-03-01T16:37:22.681Z,1.60
2019-03-01T16:41:27.341Z,2.83
2019-03-01T16:45:31.603Z,2.13
2019-03-01T16:49:35.758Z,1.67
2019-03-01T16:53:40.519Z,1.83
2019-03-01T16:57:48.582Z,3.00
2019-03-01T17:01:51.281Z,9.77
2019-03-01T17:05:55.380Z,9.93
2019-03-01T17:09:59.347Z,9.70
2019-03-01T17:14:03.415Z,5.87
2019-03-01T17:18:11.277Z,4.73
2019-03-01T17:22:13.318Z,3.37
2019-03-01T17:26:17.468Z,3.33
2019-03-01T17:30:21.678Z,3.40
2019-03-01T17:34:28.478Z,3.23
2019-03-01T17:38:31.340Z,3.17
2019-03-01T17:42:35.396Z,3.60
2019-03-01T17:46:39.435Z,3.60
2019-03-01T17:50:44.845Z,3.17
2019-03-01T17:54:49.136Z,2.90
2019-03-01T17:58:53.425Z,3.87
2019-03-01T18:02:57.512Z,2.13
2019-03-01T18:07:01.858Z,3.27
2019-03-01T18:11:08.566Z,3.30
2019-03-01T18:15:13.469Z,17.23
2019-03-01T18:19:17.577Z,13.37
2019-03-01T18:23:21.751Z,5.80
2019-03-01T18:27:25.824Z,12.07
2019-03-01T18:31:34.559Z,11.03
2019-03-01T18:35:35.565Z,6.10
2019-03-01T18:39:41.171Z,5.33
2019-03-01T18:43:45.812Z,4.63
2019-03-01T18:47:51.430Z,5.70
2019-03-01T18:51:55.498Z,4.63
2019-03-01T18:55:59.721Z,4.33
2019-03-01T19:00:07.905Z,4.30
2019-03-01T19:04:16.760Z,5.33
2019-03-01T19:08:19.321Z,4.27
2019-03-01T19:12:23.410Z,4.50
2019-03-01T19:16:28.582Z,4.10
2019-03-01T19:20:33.706Z,4.37
2019-03-01T19:24:43.025Z,4.43
2019-03-01T19:28:45.104Z,4.50
2019-03-01T19:32:49.193Z,4.53
2019-03-01T19:36:53.165Z,4.70
2019-03-01T19:40:57.124Z,4.30
2019-03-01T19:45:04.925Z,4.13
2019-03-01T19:49:09.486Z,4.37
2019-03-01T19:53:12.855Z,4.70
2019-03-01T19:57:16.935Z,5.93
2019-03-01T20:01:22.189Z,6.60
2019-03-01T20:05:27.913Z,6.07
2019-03-01T20:09:32.246Z,7.37
2019-03-01T20:13:36.321Z,5.53
2019-03-01T20:17:44.345Z,5.17
2019-03-01T20:21:47.257Z,5.27
2019-03-01T20:25:51.821Z,6.27
2019-03-01T20:29:55.895Z,5.27
2019-03-01T20:34:01.913Z,5.27
2019-03-01T20:38:05.892Z,5.67
2019-03-01T20:42:09.957Z,6.50
2019-03-01T20:46:14.247Z,6.03
2019-03-01T20:50:19.924Z,5.57
2019-03-01T20:54:25.848Z,6.63
2019-03-01T20:58:30.935Z,5.97
2019-03-01T21:02:34.820Z,5.60
2019-03-01T21:06:40.566Z,5.33
2019-03-01T21:10:46.808Z,5.23
2019-03-01T21:14:51.814Z,5.77
2019-03-01T21:18:55.748Z,6.00
2019-03-01T21:22:59.728Z,5.83
2019-03-01T21:27:03.954Z,6.37
2019-03-01T21:31:08.349Z,4.87
2019-03-01T21:35:13.874Z,5.63
2019-03-01T21:39:24.174Z,5.67
2019-03-01T21:43:27.128Z,5.93
2019-03-01T21:47:32.211Z,5.57
2019-03-01T21:51:36.157Z,7.23
2019-03-01T21:55:40.237Z,6.93
2019-03-01T21:59:44.422Z,6.57
2019-03-01T22:03:48.465Z,5.67
2019-03-01T22:07:52.956Z,5.50
2019-03-01T22:11:56.948Z,5.90
2019-03-01T22:16:01.778Z,5.63
2019-03-01T22:20:08.916Z,5.43
2019-03-01T22:24:12.081Z,4.60
2019-03-01T22:28:16.225Z,5.17
2019-03-01T22:32:20.310Z,4.53
2019-03-01T22:36:24.414Z,4.00
2019-03-01T22:40:29.407Z,3.97
2019-03-01T22:44:36.483Z,3.57
2019-03-01T22:48:46.840Z,3.87
2019-03-01T22:52:45.229Z,3.67
2019-03-01T22:56:49.555Z,3.50
2019-03-01T23:01:06.208Z,3.10
2019-03-01T23:05:10.728Z,3.23
2019-03-01T23:09:15.796Z,3.13
2019-03-01T23:13:20.749Z,3.17
2019-03-01T23:17:27.523Z,3.50
2019-03-01T23:21:32.606Z,2.90
2019-03-01T23:25:37.479Z,4.83
2019-03-01T23:29:41.664Z,3.87
2019-03-01T23:33:45.785Z,3.83
2019-03-01T23:37:50.219Z,3.40
2019-03-01T23:41:54.249Z,3.07
2019-03-01T23:45:58.371Z,3.50
2019-03-01T23:50:02.496Z,3.50
2019-03-01T23:54:09.072Z,3.87
2019-03-01T23:58:15.540Z,3.37
